Flight Track Log - Related Links

Times and Time Zones

All times are in EDT time to prevent confusion due to time zone crossing. See the EJA312 flight status page for this flight to view local times or setup timezone preferences in your user account.

Time Position Orientation Groundspeed Altitude Reporting Facility
EDT Latitude Longitude Course Direction KTS MPH feet Rate Location/Type
Fri 02:50:50 PM 36.1017 -115.1569 291° West 166 191 3,300  Level Los Angeles Center
Fri 02:52:09 PM 36.1228 -115.2247 291° West 258 297 8,000 3,585 Climbing Los Angeles Center
Fri 02:52:12 PM 36.1211 -115.2261 214° Southwest 266 306 8,200 1,967 Climbing Los Angeles Center
Fri 02:53:10 PM 36.0833 -115.3014 238° Southwest 290 334 10,000 1,742 Climbing Los Angeles Center
Fri 02:53:14 PM 36.0800 -115.3014 180° South 284 327 10,000  Level Los Angeles Center
Fri 02:54:11 PM 36.0028 -115.3383 201° Southwest 297 342 10,000  Level Los Angeles Center
Fri 02:54:17 PM 35.9967 -115.3408 198° South 300 345 10,000 2,262 Level Los Angeles Center
Fri 02:55:12 PM 35.9250 -115.3772 202° Southwest 300 345 12,300 2,032 Climbing Los Angeles Center
Fri 02:55:19 PM 35.9286 -115.3739 37° Northeast 298 343 12,100 2,931 Descending Los Angeles Center
Fri 02:57:23 PM 35.7497 -115.3214 167° South 306 352 18,700 2,935 Climbing Los Angeles Center
Fri 02:58:25 PM 35.6556 -115.2925 166° South 339 390 21,200 1,597 Climbing Los Angeles Center
Fri 02:59:27 PM 35.5500 -115.2981 182° South 369 425 22,000 387 Climbing Los Angeles Center
Fri 03:00:29 PM 35.4292 -115.3039 182° South 427 491 22,000 290 Level Los Angeles Center
Fri 03:01:31 PM 35.3083 -115.3075 181° South 436 502 22,600 823 Climbing Los Angeles Center
Fri 03:02:33 PM 35.1761 -115.3242 186° South 438 504 23,700 1,452 Climbing Los Angeles Center
Fri 03:03:35 PM 35.0611 -115.3694 198° South 435 501 25,600 1,584 Climbing Los Angeles Center
Fri 03:04:38 PM 34.9464 -115.4125 197° South 431 496 27,000 672 Climbing Los Angeles Center
Fri 03:05:40 PM 34.8114 -115.4619 197° South 452 520 27,000  Level Los Angeles Center
Fri 03:06:42 PM 34.6858 -115.5089 197° South 467 537 27,000  Level Los Angeles Center
Fri 03:07:44 PM 34.5511 -115.5589 197° South 460 529 27,000  Level Los Angeles Center
Fri 03:08:46 PM 34.4336 -115.6042 198° South 452 520 27,000  Level Los Angeles Center
Fri 03:09:48 PM 34.3128 -115.6489 197° South 449 517 27,000  Level Los Angeles Center
Fri 03:10:50 PM 34.1928 -115.6936 197° South 449 517 27,000 -290 Level Los Angeles Center
Fri 03:11:52 PM 34.0739 -115.7381 197° South 448 516 26,400 -726 Descending Los Angeles Center
Fri 03:12:54 PM 33.9292 -115.7906 197° South 452 520 25,500 -1,152 Descending Los Angeles Center
Fri 03:13:57 PM 33.8075 -115.8378 198° South 457 526 24,000 -720 Descending Los Angeles Center
Fri 03:14:59 PM 33.6853 -115.8822 197° South 458 527 24,000  Level Los Angeles Center
Fri 03:16:01 PM 33.5736 -115.9222 197° South 430 495 24,000  Level Los Angeles Center
Fri 03:17:03 PM 33.4850 -115.9964 215° Southwest 405 466 24,000 -726 Level Los Angeles Center
Fri 03:18:05 PM 33.4219 -116.1047 235° Southwest 398 458 22,500 -2,129 Descending Los Angeles Center
Fri 03:19:07 PM 33.3514 -116.2272 235° Southwest 382 440 19,600 -2,419 Descending Los Angeles Center
Fri 03:20:09 PM 33.2644 -116.2931 212° Southwest 376 433 17,500 -1,935 Descending Los Angeles Center
Fri 03:21:11 PM 33.1733 -116.3461 206° Southwest 368 423 15,600 -1,790 Descending Los Angeles Center
Fri 03:22:13 PM 33.0903 -116.3944 206° Southwest 345 397 13,800 -1,645 Descending Los Angeles Center
Fri 03:23:15 PM 33.0092 -116.4414 206° Southwest 323 372 12,200 -1,392 Descending Los Angeles Center
Fri 03:24:18 PM 32.9325 -116.4864 206° Southwest 311 358 10,900 -1,536 Descending Los Angeles Center
Fri 03:25:20 PM 32.8481 -116.5361 206° Southwest 303 349 9,000 -1,306 Descending Los Angeles Center
Fri 03:26:22 PM 32.7753 -116.5775 206° Southwest 296 341 8,200 -968 Descending Los Angeles Center
Fri 03:27:24 PM 32.6950 -116.6311 209° Southwest 292 336 7,000 -871 Descending Los Angeles Center
Fri 03:28:26 PM 32.6839 -116.7236 262° West 287 330 6,400 -484 Descending Los Angeles Center
Fri 03:29:28 PM 32.6781 -116.8122 266° West 275 316 6,000 -774 Descending Los Angeles Center
Fri 03:30:30 PM 32.6747 -116.8933 267° West 253 291 4,800 -1,306 Descending Los Angeles Center
Fri 03:31:32 PM 32.6800 -116.9686 275° West 236 272 3,300 -1,296 Descending Los Angeles Center
Fri 03:32:35 PM 32.6953 -117.0344 285° West 215 247 2,100 -912 Descending Los Angeles Center
Fri 03:33:37 PM 32.7086 -117.0883 286° West 154 177 1,400 -581 Descending Los Angeles Center
Fri 03:34:39 PM 32.7181 -117.1256 287° West 129 148 900 -435 Descending Los Angeles Center
Fri 03:35:41 PM 32.7261 -117.1606 285° West 116 133 500 -339 Descending Los Angeles Center
Fri 03:36:43 PM 32.7358 -117.1964 288° West 114 131 200 -290 Descending Los Angeles Center
Fri 03:38:00 PM 32.7336 -117.1897 103° East  Level Estimated

Login

Don't have an account? Register now (free) for customized features, flight alerts, and more!